Chesapeake, VA (23320)

9:16 AM EDT on August 31, 2015 (GMT -0400)
South Greenbrier | | Change Station
CLOSE
Current Station
Personal Weather Station
Location: Chesapeake, VA
Elevation: 33 ft
Nearby Weather Stations

Elev 33 ft 36.74 °N, 76.22 °W | Updated 43 seconds ago

Overcast
Overcast
76.3 °F
Feels Like 77 °F
N
0.0
Wind Variable Wind from NW
Gusts 0.0 mph

Today
High -- | Low -- °F
--% Chance of Precip.
Yesterday
High -- | Low -- °F
Precip. -- in
6:34 AM 7:34 PM
Waning Gibbous, 95% visible
Pressure 30.14 in
Visibility 10.0 miles
Clouds Few 5000 ft
Mostly Cloudy 8000 ft
Overcast 10000 ft
Heat Index 77 °F
Dew Point 70 °F
Humidity 81%
Rainfall in
Snow Depth Not available.
UV 0 out of 12
Pollen 8.10 out of 12
Air Quality Not available.
Flu Activity Not available.
METAR KNFE 311156Z AUTO 00000KT 10SM FEW050 BKN080 OVC100 25/21 A3013 RMK AO2 SLP204 T02500211 10250 20239 53006
Pressure 30.14 in
Visibility 10.0 miles
Clouds Few 5000 ft
Mostly Cloudy 8000 ft
Overcast 10000 ft
Heat Index 77 °F
Dew Point 70 °F
Humidity 81%
Rainfall in
Snow Depth Not available.
UV 0 out of 12
Pollen 8.10 out of 12
Air Quality Not available.
Flu Activity Not available.
METAR KNFE 311156Z AUTO 00000KT 10SM FEW050 BKN080 OVC100 25/21 A3013 RMK AO2 SLP204 T02500211 10250 20239 53006

10-Day Weather Forecast

×

Almanac

Astronomy

Aug. 31, 2015 Rise Set
Actual Time
Civil Twilight
Nautical Twilight
Astronomical Twilight
Moon
Length of Visible Light
Length of Day
Tomorrow will be .
, % of the Moon is Illuminated

Today's Extremes

State Highs State Lows

Community

WunderPhotos

Upload Photos

1,851,226 photos uploaded!

WunderBlogs® & News

Nearby

Air Quality

  Air Quality AQ Index Pollutant
Not available.

Snow Depth

Station Depth Elevation

Earthquake Activity

City Distance Mag. Time & Date
Minimum magnitude displayed is 2.5.

Coastal Water Temperatures

Place Temperature

Stations

Nearby Weather Stations

Station Location Temp. Windchill Dew Point Humidity Wind Precip. Elev Updated Type